sensor_id;sensor_type;location;lat;lon;timestamp;P1;durP1;ratioP1;P2;durP2;ratioP2
15012;SDS011;7603;49.432;11.418;2023-02-17T00:02:18;9.05;;;5.65;;
15012;SDS011;7603;49.432;11.418;2023-02-17T00:04:44;8.35;;;4.80;;
15012;SDS011;7603;49.432;11.418;2023-02-17T00:07:09;11.98;;;5.68;;
15012;SDS011;7603;49.432;11.418;2023-02-17T00:09:35;8.60;;;5.63;;
15012;SDS011;7603;49.432;11.418;2023-02-17T00:12:01;9.05;;;5.43;;
15012;SDS011;7603;49.432;11.418;2023-02-17T00:14:26;6.43;;;5.00;;
15012;SDS011;7603;49.432;11.418;2023-02-17T00:16:52;13.38;;;4.90;;
15012;SDS011;7603;49.432;11.418;2023-02-17T00:19:17;9.30;;;5.60;;
15012;SDS011;7603;49.432;11.418;2023-02-17T00:21:50;5.28;;;4.57;;
15012;SDS011;7603;49.432;11.418;2023-02-17T00:24:17;8.10;;;4.50;;
15012;SDS011;7603;49.432;11.418;2023-02-17T00:26:42;8.88;;;5.35;;
15012;SDS011;7603;49.432;11.418;2023-02-17T00:29:08;7.45;;;5.63;;
15012;SDS011;7603;49.432;11.418;2023-02-17T00:31:34;11.30;;;6.70;;
15012;SDS011;7603;49.432;11.418;2023-02-17T00:33:59;7.53;;;4.87;;
15012;SDS011;7603;49.432;11.418;2023-02-17T00:36:25;9.77;;;5.00;;
15012;SDS011;7603;49.432;11.418;2023-02-17T00:38:52;11.52;;;6.07;;
15012;SDS011;7603;49.432;11.418;2023-02-17T00:41:19;8.73;;;5.28;;
15012;SDS011;7603;49.432;11.418;2023-02-17T00:43:45;22.00;;;9.15;;
15012;SDS011;7603;49.432;11.418;2023-02-17T00:46:12;7.90;;;4.65;;
15012;SDS011;7603;49.432;11.418;2023-02-17T00:48:38;7.80;;;4.75;;
15012;SDS011;7603;49.432;11.418;2023-02-17T00:51:04;6.13;;;4.85;;
15012;SDS011;7603;49.432;11.418;2023-02-17T00:53:30;7.60;;;4.30;;
15012;SDS011;7603;49.432;11.418;2023-02-17T00:55:56;6.40;;;4.13;;
15012;SDS011;7603;49.432;11.418;2023-02-17T00:58:22;5.15;;;3.90;;
15012;SDS011;7603;49.432;11.418;2023-02-17T01:00:48;8.02;;;4.93;;
15012;SDS011;7603;49.432;11.418;2023-02-17T01:03:14;6.80;;;4.43;;
15012;SDS011;7603;49.432;11.418;2023-02-17T01:05:40;4.90;;;3.60;;
15012;SDS011;7603;49.432;11.418;2023-02-17T01:08:07;4.82;;;4.30;;
15012;SDS011;7603;49.432;11.418;2023-02-17T01:10:35;6.30;;;3.35;;
15012;SDS011;7603;49.432;11.418;2023-02-17T01:13:04;5.20;;;3.58;;
15012;SDS011;7603;49.432;11.418;2023-02-17T01:15:30;18.70;;;7.10;;
15012;SDS011;7603;49.432;11.418;2023-02-17T01:17:57;4.07;;;3.30;;
15012;SDS011;7603;49.432;11.418;2023-02-17T01:20:22;3.50;;;3.20;;
15012;SDS011;7603;49.432;11.418;2023-02-17T01:22:48;9.18;;;3.85;;
15012;SDS011;7603;49.432;11.418;2023-02-17T01:25:13;6.05;;;4.10;;
15012;SDS011;7603;49.432;11.418;2023-02-17T01:27:39;4.22;;;3.13;;
15012;SDS011;7603;49.432;11.418;2023-02-17T01:30:05;5.00;;;3.88;;
15012;SDS011;7603;49.432;11.418;2023-02-17T01:32:31;4.78;;;2.80;;
15012;SDS011;7603;49.432;11.418;2023-02-17T01:34:56;4.10;;;3.58;;
15012;SDS011;7603;49.432;11.418;2023-02-17T01:37:22;3.88;;;3.30;;
15012;SDS011;7603;49.432;11.418;2023-02-17T01:39:47;2.95;;;2.75;;
15012;SDS011;7603;49.432;11.418;2023-02-17T01:42:17;4.88;;;3.63;;
15012;SDS011;7603;49.432;11.418;2023-02-17T01:47:55;3.25;;;2.95;;
15012;SDS011;7603;49.432;11.418;2023-02-17T01:50:28;5.75;;;3.70;;
15012;SDS011;7603;49.432;11.418;2023-02-17T01:53:04;5.78;;;2.60;;
15012;SDS011;7603;49.432;11.418;2023-02-17T01:55:31;3.75;;;2.95;;
15012;SDS011;7603;49.432;11.418;2023-02-17T01:57:59;4.80;;;2.90;;
15012;SDS011;7603;49.432;11.418;2023-02-17T02:00:27;5.70;;;2.80;;
15012;SDS011;7603;49.432;11.418;2023-02-17T02:02:55;2.60;;;2.40;;
15012;SDS011;7603;49.432;11.418;2023-02-17T02:05:21;4.50;;;2.72;;
15012;SDS011;7603;49.432;11.418;2023-02-17T02:07:47;4.35;;;3.47;;
15012;SDS011;7603;49.432;11.418;2023-02-17T02:10:14;6.30;;;3.97;;
15012;SDS011;7603;49.432;11.418;2023-02-17T02:12:41;3.25;;;2.95;;
15012;SDS011;7603;49.432;11.418;2023-02-17T02:15:08;11.20;;;5.47;;
15012;SDS011;7603;49.432;11.418;2023-02-17T02:17:39;2.95;;;2.67;;
15012;SDS011;7603;49.432;11.418;2023-02-17T02:20:15;2.95;;;2.75;;
15012;SDS011;7603;49.432;11.418;2023-02-17T02:23:04;9.60;;;5.72;;
15012;SDS011;7603;49.432;11.418;2023-02-17T02:26:04;10.70;;;4.03;;
15012;SDS011;7603;49.432;11.418;2023-02-17T02:34:50;5.22;;;3.78;;
15012;SDS011;7603;49.432;11.418;2023-02-17T02:37:23;16.23;;;7.32;;
15012;SDS011;7603;49.432;11.418;2023-02-17T02:39:56;3.28;;;2.97;;
15012;SDS011;7603;49.432;11.418;2023-02-17T02:42:27;10.40;;;3.30;;
15012;SDS011;7603;49.432;11.418;2023-02-17T02:44:53;6.38;;;2.85;;
15012;SDS011;7603;49.432;11.418;2023-02-17T02:50:06;3.25;;;2.85;;
15012;SDS011;7603;49.432;11.418;2023-02-17T02:57:54;20.15;;;5.60;;
15012;SDS011;7603;49.432;11.418;2023-02-17T03:00:42;10.63;;;4.88;;
15012;SDS011;7603;49.432;11.418;2023-02-17T03:11:30;3.17;;;2.88;;
15012;SDS011;7603;49.432;11.418;2023-02-17T03:14:00;3.70;;;2.55;;
15012;SDS011;7603;49.432;11.418;2023-02-17T03:16:38;3.88;;;2.97;;
15012;SDS011;7603;49.432;11.418;2023-02-17T03:19:05;2.90;;;2.60;;
15012;SDS011;7603;49.432;11.418;2023-02-17T03:21:37;3.10;;;2.42;;
15012;SDS011;7603;49.432;11.418;2023-02-17T03:24:23;3.05;;;2.60;;
15012;SDS011;7603;49.432;11.418;2023-02-17T03:26:49;2.80;;;2.60;;
15012;SDS011;7603;49.432;11.418;2023-02-17T03:29:15;8.15;;;2.80;;
15012;SDS011;7603;49.432;11.418;2023-02-17T03:31:40;6.28;;;2.60;;
15012;SDS011;7603;49.432;11.418;2023-02-17T03:34:06;3.55;;;2.72;;
15012;SDS011;7603;49.432;11.418;2023-02-17T03:36:32;5.07;;;3.30;;
15012;SDS011;7603;49.432;11.418;2023-02-17T03:38:58;3.20;;;2.58;;
15012;SDS011;7603;49.432;11.418;2023-02-17T03:41:23;3.67;;;2.67;;
15012;SDS011;7603;49.432;11.418;2023-02-17T03:43:49;4.35;;;3.05;;
15012;SDS011;7603;49.432;11.418;2023-02-17T03:46:15;3.80;;;2.97;;
15012;SDS011;7603;49.432;11.418;2023-02-17T03:48:42;6.43;;;3.35;;
15012;SDS011;7603;49.432;11.418;2023-02-17T03:51:11;3.65;;;2.53;;
15012;SDS011;7603;49.432;11.418;2023-02-17T03:53:39;3.70;;;2.85;;
15012;SDS011;7603;49.432;11.418;2023-02-17T03:56:05;4.65;;;2.80;;
15012;SDS011;7603;49.432;11.418;2023-02-17T03:58:31;3.75;;;2.30;;
15012;SDS011;7603;49.432;11.418;2023-02-17T04:00:57;2.63;;;2.33;;
15012;SDS011;7603;49.432;11.418;2023-02-17T04:03:23;2.83;;;2.58;;
15012;SDS011;7603;49.432;11.418;2023-02-17T04:05:48;6.22;;;3.88;;
15012;SDS011;7603;49.432;11.418;2023-02-17T04:08:14;6.03;;;2.75;;
15012;SDS011;7603;49.432;11.418;2023-02-17T04:10:39;2.65;;;2.42;;
15012;SDS011;7603;49.432;11.418;2023-02-17T04:13:05;4.15;;;2.60;;
15012;SDS011;7603;49.432;11.418;2023-02-17T04:15:31;2.65;;;2.42;;
15012;SDS011;7603;49.432;11.418;2023-02-17T04:17:56;4.20;;;2.97;;
15012;SDS011;7603;49.432;11.418;2023-02-17T04:20:22;7.32;;;3.03;;
15012;SDS011;7603;49.432;11.418;2023-02-17T04:22:47;10.82;;;5.15;;
15012;SDS011;7603;49.432;11.418;2023-02-17T04:25:13;3.60;;;3.30;;
15012;SDS011;7603;49.432;11.418;2023-02-17T04:27:38;8.18;;;4.20;;
15012;SDS011;7603;49.432;11.418;2023-02-17T04:30:04;3.38;;;2.05;;
15012;SDS011;7603;49.432;11.418;2023-02-17T04:32:31;8.15;;;2.97;;
15012;SDS011;7603;49.432;11.418;2023-02-17T04:34:56;5.22;;;2.53;;
15012;SDS011;7603;49.432;11.418;2023-02-17T04:37:22;3.65;;;2.53;;
15012;SDS011;7603;49.432;11.418;2023-02-17T04:39:48;4.60;;;2.55;;
15012;SDS011;7603;49.432;11.418;2023-02-17T04:42:13;3.03;;;2.63;;
15012;SDS011;7603;49.432;11.418;2023-02-17T04:44:39;5.25;;;2.92;;
15012;SDS011;7603;49.432;11.418;2023-02-17T04:47:04;2.78;;;2.58;;
15012;SDS011;7603;49.432;11.418;2023-02-17T04:49:30;4.57;;;2.85;;
15012;SDS011;7603;49.432;11.418;2023-02-17T04:51:56;6.78;;;3.45;;
15012;SDS011;7603;49.432;11.418;2023-02-17T04:54:21;3.92;;;2.95;;
15012;SDS011;7603;49.432;11.418;2023-02-17T04:56:47;5.25;;;4.40;;
15012;SDS011;7603;49.432;11.418;2023-02-17T04:59:12;4.57;;;2.70;;
15012;SDS011;7603;49.432;11.418;2023-02-17T05:01:38;3.60;;;3.30;;
15012;SDS011;7603;49.432;11.418;2023-02-17T05:04:03;3.08;;;2.83;;
15012;SDS011;7603;49.432;11.418;2023-02-17T05:06:29;4.53;;;2.40;;
15012;SDS011;7603;49.432;11.418;2023-02-17T05:08:55;4.13;;;2.22;;
15012;SDS011;7603;49.432;11.418;2023-02-17T05:11:20;2.38;;;2.17;;
15012;SDS011;7603;49.432;11.418;2023-02-17T05:13:46;4.30;;;2.75;;
15012;SDS011;7603;49.432;11.418;2023-02-17T05:16:11;6.78;;;2.70;;
15012;SDS011;7603;49.432;11.418;2023-02-17T05:18:37;3.92;;;3.20;;
15012;SDS011;7603;49.432;11.418;2023-02-17T05:21:03;2.17;;;1.92;;
15012;SDS011;7603;49.432;11.418;2023-02-17T05:23:28;2.40;;;2.20;;
15012;SDS011;7603;49.432;11.418;2023-02-17T05:25:54;2.58;;;2.38;;
15012;SDS011;7603;49.432;11.418;2023-02-17T05:28:19;2.28;;;1.88;;
15012;SDS011;7603;49.432;11.418;2023-02-17T05:30:47;2.35;;;2.10;;
15012;SDS011;7603;49.432;11.418;2023-02-17T05:33:13;4.55;;;2.15;;
15012;SDS011;7603;49.432;11.418;2023-02-17T05:35:39;2.70;;;2.50;;
15012;SDS011;7603;49.432;11.418;2023-02-17T05:38:04;2.63;;;2.33;;
15012;SDS011;7603;49.432;11.418;2023-02-17T05:40:30;3.33;;;3.03;;
15012;SDS011;7603;49.432;11.418;2023-02-17T05:42:56;3.33;;;3.03;;
15012;SDS011;7603;49.432;11.418;2023-02-17T05:45:21;2.80;;;2.55;;
15012;SDS011;7603;49.432;11.418;2023-02-17T05:47:47;2.65;;;2.40;;
15012;SDS011;7603;49.432;11.418;2023-02-17T05:50:12;2.88;;;2.60;;
15012;SDS011;7603;49.432;11.418;2023-02-17T05:52:38;4.03;;;3.00;;
15012;SDS011;7603;49.432;11.418;2023-02-17T05:55:04;3.75;;;2.10;;
15012;SDS011;7603;49.432;11.418;2023-02-17T05:57:30;7.22;;;3.38;;
15012;SDS011;7603;49.432;11.418;2023-02-17T05:59:56;3.92;;;2.92;;
15012;SDS011;7603;49.432;11.418;2023-02-17T06:02:21;8.88;;;4.28;;
15012;SDS011;7603;49.432;11.418;2023-02-17T06:04:47;7.53;;;4.22;;
15012;SDS011;7603;49.432;11.418;2023-02-17T06:07:12;4.20;;;3.65;;
15012;SDS011;7603;49.432;11.418;2023-02-17T06:09:38;7.72;;;2.70;;
15012;SDS011;7603;49.432;11.418;2023-02-17T06:12:03;3.22;;;2.35;;
15012;SDS011;7603;49.432;11.418;2023-02-17T06:14:29;7.80;;;3.45;;
15012;SDS011;7603;49.432;11.418;2023-02-17T06:16:55;21.75;;;5.63;;
15012;SDS011;7603;49.432;11.418;2023-02-17T06:19:21;10.68;;;3.90;;
15012;SDS011;7603;49.432;11.418;2023-02-17T06:21:47;3.58;;;3.28;;
15012;SDS011;7603;49.432;11.418;2023-02-17T06:24:13;3.95;;;3.03;;
15012;SDS011;7603;49.432;11.418;2023-02-17T06:26:39;2.40;;;2.20;;
15012;SDS011;7603;49.432;11.418;2023-02-17T06:29:04;3.17;;;2.95;;
15012;SDS011;7603;49.432;11.418;2023-02-17T06:31:30;2.88;;;2.63;;
15012;SDS011;7603;49.432;11.418;2023-02-17T06:33:56;2.60;;;2.40;;
15012;SDS011;7603;49.432;11.418;2023-02-17T06:36:21;3.92;;;3.53;;
15012;SDS011;7603;49.432;11.418;2023-02-17T06:38:47;3.00;;;2.10;;
15012;SDS011;7603;49.432;11.418;2023-02-17T06:41:13;5.25;;;2.45;;
15012;SDS011;7603;49.432;11.418;2023-02-17T06:43:38;4.13;;;2.17;;
15012;SDS011;7603;49.432;11.418;2023-02-17T06:46:04;4.30;;;1.88;;
15012;SDS011;7603;49.432;11.418;2023-02-17T06:48:29;4.15;;;2.70;;
15012;SDS011;7603;49.432;11.418;2023-02-17T06:50:57;2.25;;;2.05;;
15012;SDS011;7603;49.432;11.418;2023-02-17T06:53:23;5.38;;;1.80;;
15012;SDS011;7603;49.432;11.418;2023-02-17T06:55:49;3.00;;;2.10;;
15012;SDS011;7603;49.432;11.418;2023-02-17T06:58:14;2.78;;;2.35;;
15012;SDS011;7603;49.432;11.418;2023-02-17T07:00:40;2.72;;;2.03;;
15012;SDS011;7603;49.432;11.418;2023-02-17T07:03:05;2.78;;;2.58;;
15012;SDS011;7603;49.432;11.418;2023-02-17T07:05:33;3.47;;;2.42;;
15012;SDS011;7603;49.432;11.418;2023-02-17T07:08:03;3.30;;;1.98;;
15012;SDS011;7603;49.432;11.418;2023-02-17T07:10:29;3.20;;;2.10;;
15012;SDS011;7603;49.432;11.418;2023-02-17T07:12:55;5.00;;;2.30;;
15012;SDS011;7603;49.432;11.418;2023-02-17T07:15:20;4.68;;;2.35;;
15012;SDS011;7603;49.432;11.418;2023-02-17T07:17:46;3.20;;;2.22;;
15012;SDS011;7603;49.432;11.418;2023-02-17T07:20:12;7.03;;;2.92;;
15012;SDS011;7603;49.432;11.418;2023-02-17T07:22:38;2.95;;;2.65;;
15012;SDS011;7603;49.432;11.418;2023-02-17T07:25:04;2.80;;;2.13;;
15012;SDS011;7603;49.432;11.418;2023-02-17T07:27:30;5.80;;;3.55;;
15012;SDS011;7603;49.432;11.418;2023-02-17T07:29:56;3.00;;;2.50;;
15012;SDS011;7603;49.432;11.418;2023-02-17T07:32:22;8.05;;;2.60;;
15012;SDS011;7603;49.432;11.418;2023-02-17T07:34:48;2.50;;;2.30;;
15012;SDS011;7603;49.432;11.418;2023-02-17T07:37:13;2.20;;;2.00;;
15012;SDS011;7603;49.432;11.418;2023-02-17T07:39:39;6.60;;;2.40;;
15012;SDS011;7603;49.432;11.418;2023-02-17T07:42:05;2.28;;;2.08;;
15012;SDS011;7603;49.432;11.418;2023-02-17T07:44:30;2.22;;;2.03;;
15012;SDS011;7603;49.432;11.418;2023-02-17T07:46:56;4.40;;;2.58;;
15012;SDS011;7603;49.432;11.418;2023-02-17T07:49:22;3.22;;;1.90;;
15012;SDS011;7603;49.432;11.418;2023-02-17T07:51:48;4.63;;;2.88;;
15012;SDS011;7603;49.432;11.418;2023-02-17T07:54:13;3.85;;;2.40;;
15012;SDS011;7603;49.432;11.418;2023-02-17T07:56:39;3.58;;;1.98;;
15012;SDS011;7603;49.432;11.418;2023-02-17T07:59:11;2.58;;;2.22;;
15012;SDS011;7603;49.432;11.418;2023-02-17T08:01:37;2.40;;;2.20;;
15012;SDS011;7603;49.432;11.418;2023-02-17T08:04:02;2.92;;;2.20;;
15012;SDS011;7603;49.432;11.418;2023-02-17T08:06:29;2.78;;;2.58;;
15012;SDS011;7603;49.432;11.418;2023-02-17T08:08:55;2.70;;;2.20;;
15012;SDS011;7603;49.432;11.418;2023-02-17T08:11:40;3.47;;;2.40;;
15012;SDS011;7603;49.432;11.418;2023-02-17T08:14:26;1.95;;;1.77;;
15012;SDS011;7603;49.432;11.418;2023-02-17T08:16:53;2.05;;;1.85;;
15012;SDS011;7603;49.432;11.418;2023-02-17T08:19:19;2.85;;;2.58;;
15012;SDS011;7603;49.432;11.418;2023-02-17T08:21:45;3.38;;;2.17;;
15012;SDS011;7603;49.432;11.418;2023-02-17T08:24:11;4.18;;;1.88;;
15012;SDS011;7603;49.432;11.418;2023-02-17T08:26:37;2.53;;;2.33;;
15012;SDS011;7603;49.432;11.418;2023-02-17T08:29:03;1.60;;;1.50;;
15012;SDS011;7603;49.432;11.418;2023-02-17T08:31:29;2.33;;;2.13;;
15012;SDS011;7603;49.432;11.418;2023-02-17T08:33:58;2.38;;;2.17;;
15012;SDS011;7603;49.432;11.418;2023-02-17T08:36:25;1.88;;;1.70;;
15012;SDS011;7603;49.432;11.418;2023-02-17T08:38:51;2.38;;;2.17;;
15012;SDS011;7603;49.432;11.418;2023-02-17T08:43:48;1.70;;;1.60;;
15012;SDS011;7603;49.432;11.418;2023-02-17T08:46:14;1.55;;;1.45;;
15012;SDS011;7603;49.432;11.418;2023-02-17T08:48:41;1.30;;;1.30;;
15012;SDS011;7603;49.432;11.418;2023-02-17T08:51:07;15.55;;;5.75;;
15012;SDS011;7603;49.432;11.418;2023-02-17T08:53:36;3.85;;;3.05;;
15012;SDS011;7603;49.432;11.418;2023-02-17T08:56:02;2.65;;;2.45;;
15012;SDS011;7603;49.432;11.418;2023-02-17T08:58:28;2.75;;;2.28;;
15012;SDS011;7603;49.432;11.418;2023-02-17T09:00:53;3.15;;;2.03;;
15012;SDS011;7603;49.432;11.418;2023-02-17T09:03:19;2.28;;;2.08;;
15012;SDS011;7603;49.432;11.418;2023-02-17T09:05:45;3.05;;;2.13;;
15012;SDS011;7603;49.432;11.418;2023-02-17T09:08:10;1.63;;;1.52;;
15012;SDS011;7603;49.432;11.418;2023-02-17T09:10:36;1.80;;;1.70;;
15012;SDS011;7603;49.432;11.418;2023-02-17T09:13:02;2.85;;;1.90;;
15012;SDS011;7603;49.432;11.418;2023-02-17T09:15:28;1.65;;;1.55;;
15012;SDS011;7603;49.432;11.418;2023-02-17T09:17:54;3.35;;;1.90;;
15012;SDS011;7603;49.432;11.418;2023-02-17T09:20:20;2.50;;;2.35;;
15012;SDS011;7603;49.432;11.418;2023-02-17T09:22:45;2.00;;;1.90;;
15012;SDS011;7603;49.432;11.418;2023-02-17T09:25:11;2.80;;;2.60;;
15012;SDS011;7603;49.432;11.418;2023-02-17T09:27:36;2.60;;;2.38;;
15012;SDS011;7603;49.432;11.418;2023-02-17T09:30:02;2.38;;;2.20;;
15012;SDS011;7603;49.432;11.418;2023-02-17T09:32:28;1.85;;;1.67;;
15012;SDS011;7603;49.432;11.418;2023-02-17T09:34:53;2.75;;;1.60;;
15012;SDS011;7603;49.432;11.418;2023-02-17T09:37:19;2.20;;;2.05;;
15012;SDS011;7603;49.432;11.418;2023-02-17T09:39:46;2.45;;;2.25;;
15012;SDS011;7603;49.432;11.418;2023-02-17T09:42:16;1.50;;;1.30;;
15012;SDS011;7603;49.432;11.418;2023-02-17T09:44:45;1.05;;;1.05;;
15012;SDS011;7603;49.432;11.418;2023-02-17T09:47:24;1.58;;;1.50;;
15012;SDS011;7603;49.432;11.418;2023-02-17T09:49:56;3.80;;;1.15;;
15012;SDS011;7603;49.432;11.418;2023-02-17T09:52:27;12.80;;;2.63;;
15012;SDS011;7603;49.432;11.418;2023-02-17T09:58:14;7.32;;;2.38;;
15012;SDS011;7603;49.432;11.418;2023-02-17T10:00:28;1.30;;;1.20;;
15012;SDS011;7603;49.432;11.418;2023-02-17T10:02:59;1.77;;;1.25;;
15012;SDS011;7603;49.432;11.418;2023-02-17T10:06:00;2.13;;;1.70;;
15012;SDS011;7603;49.432;11.418;2023-02-17T10:11:29;1.50;;;1.40;;
15012;SDS011;7603;49.432;11.418;2023-02-17T10:13:59;1.70;;;1.42;;
15012;SDS011;7603;49.432;11.418;2023-02-17T10:16:34;3.97;;;1.60;;
15012;SDS011;7603;49.432;11.418;2023-02-17T10:19:04;1.20;;;1.02;;
15012;SDS011;7603;49.432;11.418;2023-02-17T10:21:56;1.70;;;1.17;;
15012;SDS011;7603;49.432;11.418;2023-02-17T10:24:29;2.90;;;1.50;;
15012;SDS011;7603;49.432;11.418;2023-02-17T10:29:43;1.20;;;1.15;;
15012;SDS011;7603;49.432;11.418;2023-02-17T10:32:25;1.58;;;1.48;;
15012;SDS011;7603;49.432;11.418;2023-02-17T10:34:56;1.52;;;1.42;;
15012;SDS011;7603;49.432;11.418;2023-02-17T10:37:34;1.70;;;1.60;;
15012;SDS011;7603;49.432;11.418;2023-02-17T10:40:24;1.20;;;1.15;;
15012;SDS011;7603;49.432;11.418;2023-02-17T10:42:53;1.63;;;1.52;;
15012;SDS011;7603;49.432;11.418;2023-02-17T10:45:35;2.10;;;1.33;;
15012;SDS011;7603;49.432;11.418;2023-02-17T10:48:06;1.50;;;1.40;;
15012;SDS011;7603;49.432;11.418;2023-02-17T10:50:35;2.13;;;1.35;;
15012;SDS011;7603;49.432;11.418;2023-02-17T10:53:12;1.67;;;1.30;;
15012;SDS011;7603;49.432;11.418;2023-02-17T11:00:59;1.60;;;1.50;;
15012;SDS011;7603;49.432;11.418;2023-02-17T11:03:29;1.10;;;1.10;;
15012;SDS011;7603;49.432;11.418;2023-02-17T11:06:05;1.20;;;1.20;;
15012;SDS011;7603;49.432;11.418;2023-02-17T11:09:05;1.48;;;1.38;;
15012;SDS011;7603;49.432;11.418;2023-02-17T11:11:33;0.80;;;0.80;;
15012;SDS011;7603;49.432;11.418;2023-02-17T11:16:28;1.13;;;1.10;;
15012;SDS011;7603;49.432;11.418;2023-02-17T11:19:04;1.10;;;0.80;;
15012;SDS011;7603;49.432;11.418;2023-02-17T11:21:31;0.77;;;0.77;;
15012;SDS011;7603;49.432;11.418;2023-02-17T11:23:59;5.13;;;1.40;;
15012;SDS011;7603;49.432;11.418;2023-02-17T11:26:28;1.38;;;1.27;;
15012;SDS011;7603;49.432;11.418;2023-02-17T11:29:08;0.98;;;0.98;;
15012;SDS011;7603;49.432;11.418;2023-02-17T11:31:56;1.67;;;1.45;;
15012;SDS011;7603;49.432;11.418;2023-02-17T11:34:26;2.33;;;1.40;;
15012;SDS011;7603;49.432;11.418;2023-02-17T11:42:21;2.50;;;1.45;;
15012;SDS011;7603;49.432;11.418;2023-02-17T11:44:51;1.30;;;1.30;;
15012;SDS011;7603;49.432;11.418;2023-02-17T11:47:37;1.42;;;1.33;;
15012;SDS011;7603;49.432;11.418;2023-02-17T11:55:52;1.58;;;1.27;;
15012;SDS011;7603;49.432;11.418;2023-02-17T11:58:48;1.52;;;1.42;;
15012;SDS011;7603;49.432;11.418;2023-02-17T12:04:03;1.30;;;1.20;;
15012;SDS011;7603;49.432;11.418;2023-02-17T12:06:43;1.70;;;1.60;;
15012;SDS011;7603;49.432;11.418;2023-02-17T12:11:43;1.73;;;1.50;;
15012;SDS011;7603;49.432;11.418;2023-02-17T12:17:20;2.13;;;2.03;;
15012;SDS011;7603;49.432;11.418;2023-02-17T12:22:47;2.35;;;2.17;;
15012;SDS011;7603;49.432;11.418;2023-02-17T12:25:39;2.72;;;1.52;;
15012;SDS011;7603;49.432;11.418;2023-02-17T12:34:23;1.90;;;1.80;;
15012;SDS011;7603;49.432;11.418;2023-02-17T12:36:55;1.17;;;1.08;;
15012;SDS011;7603;49.432;11.418;2023-02-17T12:39:23;1.10;;;1.10;;
15012;SDS011;7603;49.432;11.418;2023-02-17T12:42:01;2.33;;;1.13;;
15012;SDS011;7603;49.432;11.418;2023-02-17T12:44:42;0.98;;;0.98;;
15012;SDS011;7603;49.432;11.418;2023-02-17T12:47:24;1.35;;;1.27;;
15012;SDS011;7603;49.432;11.418;2023-02-17T12:50:08;1.30;;;1.25;;
15012;SDS011;7603;49.432;11.418;2023-02-17T12:52:39;1.48;;;1.25;;
15012;SDS011;7603;49.432;11.418;2023-02-17T12:55:24;1.50;;;1.27;;
15012;SDS011;7603;49.432;11.418;2023-02-17T12:57:57;1.55;;;1.45;;
15012;SDS011;7603;49.432;11.418;2023-02-17T13:00:30;1.30;;;1.20;;
15012;SDS011;7603;49.432;11.418;2023-02-17T13:03:03;1.00;;;1.00;;
15012;SDS011;7603;49.432;11.418;2023-02-17T13:05:34;4.85;;;1.17;;
15012;SDS011;7603;49.432;11.418;2023-02-17T13:10:45;1.60;;;1.50;;
15012;SDS011;7603;49.432;11.418;2023-02-17T13:13:13;1.30;;;1.23;;
15012;SDS011;7603;49.432;11.418;2023-02-17T13:16:08;0.93;;;0.93;;
15012;SDS011;7603;49.432;11.418;2023-02-17T13:18:36;2.53;;;1.70;;
15012;SDS011;7603;49.432;11.418;2023-02-17T13:23:45;1.20;;;1.10;;
15012;SDS011;7603;49.432;11.418;2023-02-17T13:26:32;1.60;;;1.50;;
15012;SDS011;7603;49.432;11.418;2023-02-17T13:31:56;1.85;;;1.65;;
15012;SDS011;7603;49.432;11.418;2023-02-17T13:34:29;1.33;;;1.20;;
15012;SDS011;7603;49.432;11.418;2023-02-17T13:36:58;1.00;;;0.90;;
15012;SDS011;7603;49.432;11.418;2023-02-17T13:41:51;1.33;;;1.20;;
15012;SDS011;7603;49.432;11.418;2023-02-17T13:44:29;1.63;;;1.52;;
15012;SDS011;7603;49.432;11.418;2023-02-17T13:46:58;3.15;;;1.50;;
15012;SDS011;7603;49.432;11.418;2023-02-17T13:49:40;1.40;;;1.40;;
15012;SDS011;7603;49.432;11.418;2023-02-17T13:52:17;1.35;;;1.35;;
15012;SDS011;7603;49.432;11.418;2023-02-17T13:54:50;3.33;;;1.00;;
15012;SDS011;7603;49.432;11.418;2023-02-17T13:57:27;1.40;;;1.30;;
15012;SDS011;7603;49.432;11.418;2023-02-17T14:08:02;1.23;;;1.20;;
15012;SDS011;7603;49.432;11.418;2023-02-17T14:10:36;1.10;;;1.00;;
15012;SDS011;7603;49.432;11.418;2023-02-17T14:13:02;1.15;;;1.15;;
15012;SDS011;7603;49.432;11.418;2023-02-17T14:15:28;1.45;;;1.33;;
15012;SDS011;7603;49.432;11.418;2023-02-17T14:17:54;1.20;;;1.10;;
15012;SDS011;7603;49.432;11.418;2023-02-17T14:20:30;1.15;;;1.15;;
15012;SDS011;7603;49.432;11.418;2023-02-17T14:23:08;2.05;;;1.17;;
15012;SDS011;7603;49.432;11.418;2023-02-17T14:25:37;1.20;;;1.20;;
15012;SDS011;7603;49.432;11.418;2023-02-17T14:28:16;0.98;;;0.98;;
15012;SDS011;7603;49.432;11.418;2023-02-17T14:30:46;0.95;;;0.95;;
15012;SDS011;7603;49.432;11.418;2023-02-17T14:35:57;0.90;;;0.85;;
15012;SDS011;7603;49.432;11.418;2023-02-17T14:38:31;1.08;;;1.08;;
15012;SDS011;7603;49.432;11.418;2023-02-17T14:41:04;3.47;;;1.20;;
15012;SDS011;7603;49.432;11.418;2023-02-17T14:43:33;1.10;;;1.10;;
15012;SDS011;7603;49.432;11.418;2023-02-17T14:45:59;2.17;;;1.20;;
15012;SDS011;7603;49.432;11.418;2023-02-17T14:48:25;1.20;;;1.10;;
15012;SDS011;7603;49.432;11.418;2023-02-17T14:50:51;0.90;;;0.90;;
15012;SDS011;7603;49.432;11.418;2023-02-17T14:56:01;1.20;;;1.10;;
15012;SDS011;7603;49.432;11.418;2023-02-17T14:58:31;1.10;;;0.90;;
15012;SDS011;7603;49.432;11.418;2023-02-17T15:00:57;0.77;;;0.77;;
15012;SDS011;7603;49.432;11.418;2023-02-17T15:03:23;5.68;;;1.30;;
15012;SDS011;7603;49.432;11.418;2023-02-17T15:05:49;0.70;;;0.70;;
15012;SDS011;7603;49.432;11.418;2023-02-17T15:08:16;0.95;;;0.68;;
15012;SDS011;7603;49.432;11.418;2023-02-17T15:10:54;0.90;;;0.90;;
15012;SDS011;7603;49.432;11.418;2023-02-17T15:13:20;0.70;;;0.70;;
15012;SDS011;7603;49.432;11.418;2023-02-17T15:15:45;0.90;;;0.90;;
15012;SDS011;7603;49.432;11.418;2023-02-17T15:18:14;0.60;;;0.60;;
15012;SDS011;7603;49.432;11.418;2023-02-17T15:20:42;0.82;;;0.82;;
15012;SDS011;7603;49.432;11.418;2023-02-17T15:23:17;0.90;;;0.90;;
15012;SDS011;7603;49.432;11.418;2023-02-17T15:25:45;1.65;;;1.55;;
15012;SDS011;7603;49.432;11.418;2023-02-17T15:28:16;1.13;;;0.80;;
15012;SDS011;7603;49.432;11.418;2023-02-17T15:30:52;0.70;;;0.70;;
15012;SDS011;7603;49.432;11.418;2023-02-17T15:33:20;1.33;;;1.13;;
15012;SDS011;7603;49.432;11.418;2023-02-17T15:35:50;1.95;;;1.10;;
15012;SDS011;7603;49.432;11.418;2023-02-17T15:38:20;0.80;;;0.80;;
15012;SDS011;7603;49.432;11.418;2023-02-17T15:40:47;0.70;;;0.70;;
15012;SDS011;7603;49.432;11.418;2023-02-17T15:43:17;1.02;;;1.00;;
15012;SDS011;7603;49.432;11.418;2023-02-17T15:45:45;1.00;;;1.00;;
15012;SDS011;7603;49.432;11.418;2023-02-17T15:48:16;0.80;;;0.80;;
15012;SDS011;7603;49.432;11.418;2023-02-17T15:50:46;0.90;;;0.90;;
15012;SDS011;7603;49.432;11.418;2023-02-17T15:53:12;0.80;;;0.80;;
15012;SDS011;7603;49.432;11.418;2023-02-17T15:55:38;0.80;;;0.80;;
15012;SDS011;7603;49.432;11.418;2023-02-17T15:58:04;2.65;;;0.85;;
15012;SDS011;7603;49.432;11.418;2023-02-17T16:00:34;0.80;;;0.80;;
15012;SDS011;7603;49.432;11.418;2023-02-17T16:03:00;1.00;;;1.00;;
15012;SDS011;7603;49.432;11.418;2023-02-17T16:05:26;2.63;;;2.15;;
15012;SDS011;7603;49.432;11.418;2023-02-17T16:07:53;3.13;;;1.63;;
15012;SDS011;7603;49.432;11.418;2023-02-17T16:10:20;1.63;;;1.30;;
15012;SDS011;7603;49.432;11.418;2023-02-17T16:12:49;1.30;;;1.20;;
15012;SDS011;7603;49.432;11.418;2023-02-17T16:15:17;1.98;;;1.23;;
15012;SDS011;7603;49.432;11.418;2023-02-17T16:17:45;0.93;;;0.80;;
15012;SDS011;7603;49.432;11.418;2023-02-17T16:20:13;1.23;;;1.15;;
15012;SDS011;7603;49.432;11.418;2023-02-17T16:22:43;1.00;;;1.00;;
15012;SDS011;7603;49.432;11.418;2023-02-17T16:25:09;0.98;;;0.90;;
15012;SDS011;7603;49.432;11.418;2023-02-17T16:27:36;0.70;;;0.70;;
15012;SDS011;7603;49.432;11.418;2023-02-17T16:30:15;0.60;;;0.60;;
15012;SDS011;7603;49.432;11.418;2023-02-17T16:32:43;0.95;;;0.95;;
15012;SDS011;7603;49.432;11.418;2023-02-17T16:35:16;1.38;;;0.80;;
15012;SDS011;7603;49.432;11.418;2023-02-17T16:37:45;0.70;;;0.70;;